Terminal Aerodrome Forecast
Issued by NWS Detroit/Pontiac, MI

Home | Current Version | Previous Version | Text Only | Print | Product List | Glossary On
Versions: 1 2 3 4 5 6 7 8 9 10 11 12 13 14 15 16 17 18 19 20 21 22 23 24 25 26 27
000
FTUS43 KDTX 190534
TAFDTW
TAF
KDTW 190534Z 1906/2012 34003KT P6SM OVC015
      TEMPO 1906/1908 6SM -FZDZSN SCT008 OVC012
     FM191700 34004KT P6SM BKN025
     FM192300 33005KT P6SM SCT025
     FM200600 VRB03KT P6SM BKN025=

USA.gov is the U.S. government's official web portal to all federal, state and local government web resources and services.